Time;durP1;ratioP1;P1;durP2;ratioP2;P2;SDS_P1;SDS_P2;PMS_P1;PMS_P2;Temp;Humidity;BMP_temperature;BMP_pressure;BME280_temperature;BME280_humidity;BME280_pressure;Samples;Min_cycle;Max_cycle;Signal;HPM_P1;HPM_P2
2023/04/13 00:00:42;;;;;;;6.78;2.88;;;;;;;8.98;50.73;99263.19;5106347;28;19955;-40
2023/04/13 00:03:11;;;;;;;4.55;2.38;;;;;;;8.91;50.93;99245.69;5106118;28;20031;-40
2023/04/13 00:05:37;;;;;;;;;;;;;;;8.84;52.04;99267.88;5106554;28;20059;-40
2023/04/13 00:08:03;;;;;;;4.88;2.63;;;;;;;8.72;52.51;99260.91;5106604;28;19950;-40
2023/04/13 00:10:30;;;;;;;6.55;2.78;;;;;;;8.34;54.11;99260.16;5106152;28;20031;-40
2023/04/13 00:12:57;;;;;;;5.90;3.25;;;;;;;8.30;54.08;99272.25;5105989;28;20911;-40
2023/04/13 00:15:23;;;;;;;6.88;3.42;;;;;;;7.92;55.85;99268.00;5105557;28;20106;-40
2023/04/13 00:17:48;;;;;;;10.95;4.65;;;;;;;7.77;56.18;99263.06;5106404;28;20206;-39
2023/04/13 00:20:14;;;;;;;8.75;5.13;;;;;;;7.85;56.95;99275.22;5105800;28;20023;-40
2023/04/13 00:22:44;;;;;;;6.45;3.45;;;;;;;7.91;56.49;99279.66;5105886;28;20499;-40
2023/04/13 00:25:13;;;;;;;5.57;2.90;;;;;;;7.72;56.82;99278.00;5105900;28;20030;-40
2023/04/13 00:27:39;;;;;;;6.28;2.95;;;;;;;7.44;58.54;99274.00;5105904;28;20035;-42
2023/04/13 00:30:15;;;;;;;5.20;3.00;;;;;;;7.41;58.88;99277.88;5105824;28;20760;-40
2023/04/13 00:32:42;;;;;;;4.93;2.95;;;;;;;7.21;59.73;99291.31;5106080;28;20040;-40
2023/04/13 00:35:09;;;;;;;6.28;3.80;;;;;;;7.09;60.70;99287.72;5105875;28;20020;-40
2023/04/13 00:37:35;;;;;;;6.68;3.95;;;;;;;6.83;62.02;99286.88;5105648;28;20110;-40
2023/04/13 00:40:00;;;;;;;6.55;3.40;;;;;;;6.80;61.88;99297.09;5105814;28;20130;-40
2023/04/13 00:42:26;;;;;;;5.47;3.30;;;;;;;6.47;62.92;99286.66;5105558;28;20432;-40
2023/04/13 00:44:52;;;;;;;6.70;3.40;;;;;;;6.57;61.78;99292.31;5105902;28;20066;-41
2023/04/13 00:47:29;;;;;;;6.50;3.70;;;;;;;6.80;61.12;99287.31;5105476;28;20114;-40
2023/04/13 00:49:55;;;;;;;6.83;3.40;;;;;;;6.93;60.90;99298.84;5105637;28;20026;-40
2023/04/13 00:52:21;;;;;;;6.75;3.35;;;;;;;7.00;60.11;99302.25;5105547;28;20023;-39
2023/04/13 00:54:48;;;;;;;6.10;3.28;;;;;;;6.75;62.01;99303.03;5105467;28;20024;-40
2023/04/13 00:57:18;;;;;;;8.73;4.00;;;;;;;6.67;63.00;99297.97;5105201;28;20492;-39
2023/04/13 00:59:48;;;;;;;7.70;4.10;;;;;;;6.96;61.13;99295.75;5105767;28;20576;-40
2023/04/13 01:02:14;;;;;;;8.13;4.32;;;;;;;7.15;61.17;99309.91;5105450;28;20031;-40
2023/04/13 01:04:40;;;;;;;6.30;3.97;;;;;;;7.15;61.71;99297.47;5105618;28;20119;-41
2023/04/13 01:07:15;;;;;;;7.25;3.80;;;;;;;7.26;61.16;99319.03;5105124;28;20131;-40
2023/04/13 01:09:51;;;;;;;7.43;3.97;;;;;;;6.73;61.73;99305.06;5105467;28;20053;-40
2023/04/13 01:12:26;;;;;;;9.18;3.90;;;;;;;7.07;59.61;99302.22;5105530;28;20047;-40
2023/04/13 01:15:00;;;;;;;7.60;3.70;;;;;;;7.12;59.98;99318.31;5105435;28;20046;-40
2023/04/13 01:17:30;;;;;;;5.70;3.50;;;;;;;7.00;60.16;99291.66;5105594;28;20519;-41
2023/04/13 01:19:59;;;;;;;7.07;3.47;;;;;;;7.00;60.35;99292.47;5105569;28;20047;-40
2023/04/13 01:22:28;;;;;;;7.78;3.80;;;;;;;6.89;60.07;99305.63;5105338;28;20504;-40
2023/04/13 01:25:10;;;;;;;8.57;4.13;;;;;;;6.85;61.63;99326.41;5103843;28;20415;-40
2023/04/13 01:27:46;;;;;;;7.05;3.88;;;;;;;6.92;60.18;99332.47;5101395;28;20098;-40
2023/04/13 01:30:13;;;;;;;7.18;3.65;;;;;;;6.77;60.28;99314.22;5109302;28;20042;-41
2023/04/13 01:32:41;;;;;;;9.70;4.63;;;;;;;6.74;61.38;99325.25;5108627;28;20112;-40
2023/04/13 01:35:09;;;;;;;8.68;4.05;;;;;;;6.82;60.96;99326.84;5109158;27;20031;-40
2023/04/13 01:37:38;;;;;;;;;;;;;;;6.68;62.11;99327.94;5109281;28;20015;-40
2023/04/13 01:40:11;;;;;;;7.82;3.90;;;;;;;6.56;62.54;99322.47;5108723;28;19945;-40
2023/04/13 01:42:41;;;;;;;8.07;4.68;;;;;;;6.64;61.41;99320.41;5108763;28;20032;-40
2023/04/13 01:45:13;;;;;;;12.10;5.22;;;;;;;6.58;62.32;99320.47;5109018;28;20982;-40
2023/04/13 01:47:43;;;;;;;10.57;5.10;;;;;;;6.55;61.79;99315.56;5108545;28;20081;-40
2023/04/13 01:50:28;;;;;;;8.48;4.47;;;;;;;6.54;62.75;99309.47;5108751;28;20102;-40
2023/04/13 01:52:59;;;;;;;7.13;4.00;;;;;;;6.44;61.61;99309.91;5108434;28;20023;-40
2023/04/13 01:55:25;;;;;;;7.13;4.32;;;;;;;6.48;61.99;99318.25;5108489;28;20031;-40
2023/04/13 01:57:55;;;;;;;9.77;3.97;;;;;;;6.48;62.15;99310.31;5108604;28;20027;-40
2023/04/13 02:00:21;;;;;;;6.30;3.58;;;;;;;6.57;62.15;99326.75;5108534;28;20074;-40
2023/04/13 02:02:47;;;;;;;7.03;3.75;;;;;;;6.54;61.87;99316.56;5108339;28;20785;-40
2023/04/13 02:05:13;;;;;;;5.63;3.38;;;;;;;6.40;62.24;99321.13;5108458;28;20099;-40
2023/04/13 02:07:43;;;;;;;8.60;3.80;;;;;;;6.06;64.00;99316.97;5108017;28;20477;-41
2023/04/13 02:10:10;;;;;;;9.13;3.80;;;;;;;6.32;63.55;99321.38;5108662;28;20119;-42
2023/04/13 02:12:36;;;;;;;8.48;3.80;;;;;;;6.42;62.94;99325.19;5108252;28;20153;-40
2023/04/13 02:15:01;;;;;;;7.13;3.53;;;;;;;6.26;62.76;99307.13;5108291;27;20110;-40
2023/04/13 02:17:28;;;;;;;6.53;3.38;;;;;;;6.17;62.23;99318.94;5108031;28;20041;-40
2023/04/13 02:19:56;;;;;;;6.32;3.33;;;;;;;6.15;62.72;99321.00;5108064;27;20031;-40
2023/04/13 02:22:22;;;;;;;5.72;3.03;;;;;;;6.17;63.03;99321.59;5108285;28;20104;-38
2023/04/13 02:24:49;;;;;;;7.75;3.30;;;;;;;6.11;62.81;99325.06;5107885;28;20872;-39
2023/04/13 02:27:15;;;;;;;7.18;3.28;;;;;;;5.96;63.38;99328.78;5107826;28;20024;-40
2023/04/13 02:29:40;;;;;;;6.32;3.35;;;;;;;5.83;63.48;99323.50;5107702;28;20038;-40
2023/04/13 02:32:06;;;;;;;5.35;3.25;;;;;;;5.82;63.80;99327.13;5107844;28;20020;-40
2023/04/13 02:34:32;;;;;;;6.32;3.40;;;;;;;5.83;63.68;99326.13;5107520;28;20420;-40
2023/04/13 02:36:59;;;;;;;7.63;3.53;;;;;;;5.64;64.99;99309.28;5107711;28;20118;-40
2023/04/13 02:39:24;;;;;;;8.18;3.35;;;;;;;5.61;66.41;99336.94;5107387;28;20112;-40
2023/04/13 02:41:50;;;;;;;5.85;3.78;;;;;;;5.36;67.18;99338.56;5107857;28;20727;-40
2023/04/13 02:44:15;;;;;;;6.85;3.80;;;;;;;4.63;70.28;99344.50;5107651;28;20117;-40
2023/04/13 02:46:41;;;;;;;8.80;5.18;;;;;;;4.85;69.10;99350.47;5107404;28;20540;-40
2023/04/13 02:49:07;;;;;;;94.35;57.33;;;;;;;5.40;67.70;99355.66;5107605;28;20039;-41
2023/04/13 02:51:33;;;;;;;49.30;32.40;;;;;;;5.39;67.52;99351.38;5107158;28;20419;-39
2023/04/13 02:54:01;;;;;;;40.85;24.58;;;;;;;5.42;68.29;99356.28;5107327;28;20027;-41
2023/04/13 02:56:27;;;;;;;126.60;63.75;;;;;;;5.01;69.41;99351.94;5107386;28;20030;-40
2023/04/13 02:58:52;;;;;;;96.10;51.58;;;;;;;4.48;72.98;99351.78;5107350;28;20032;-40
2023/04/13 03:01:18;;;;;;;12.07;7.20;;;;;;;3.80;75.35;99355.03;5107048;27;20054;-41
2023/04/13 03:03:44;;;;;;;7.80;5.05;;;;;;;3.75;76.04;99362.72;5107222;28;20027;-41
2023/04/13 03:06:10;;;;;;;10.07;5.30;;;;;;;3.44;76.82;99365.72;5106887;28;20048;-41
2023/04/13 03:08:35;;;;;;;7.75;4.35;;;;;;;3.89;75.56;99359.16;5105415;28;20530;-42
2023/04/13 03:11:01;;;;;;;6.97;4.20;;;;;;;3.72;76.25;99356.00;5107304;28;20519;-40
2023/04/13 03:13:26;;;;;;;6.55;4.10;;;;;;;3.70;78.09;99355.38;5106648;27;20035;-41
2023/04/13 03:15:52;;;;;;;7.25;4.30;;;;;;;4.12;76.57;99366.81;5106870;28;20022;-40
2023/04/13 03:18:17;;;;;;;7.95;4.03;;;;;;;3.96;78.68;99359.19;5106889;28;20024;-40
2023/04/13 03:20:43;;;;;;;7.78;4.40;;;;;;;4.28;78.66;99362.22;5106858;28;20039;-40
2023/04/13 03:23:09;;;;;;;7.65;4.43;;;;;;;4.50;77.94;99355.03;5106705;28;20034;-40
2023/04/13 03:25:35;;;;;;;6.25;4.32;;;;;;;4.69;77.04;99369.31;5104613;28;20024;-40
2023/04/13 03:28:00;;;;;;;7.63;4.60;;;;;;;4.66;75.33;99365.25;5099743;28;20034;-40
2023/04/13 03:30:25;;;;;;;11.63;6.05;;;;;;;4.86;74.09;99375.88;5097398;28;20036;-40
2023/04/13 03:32:51;;;;;;;10.65;5.03;;;;;;;4.47;76.01;99371.25;5106383;28;20115;-40
2023/04/13 03:35:16;;;;;;;10.02;5.32;;;;;;;4.57;75.96;99374.34;5106194;28;20846;-40
2023/04/13 03:37:43;;;;;;;11.32;5.03;;;;;;;4.71;74.01;99389.22;5106368;28;20831;-39
2023/04/13 03:40:09;;;;;;;10.55;5.25;;;;;;;4.75;72.80;99390.47;5104713;28;20530;-40
2023/04/13 03:42:36;;;;;;;8.32;4.70;;;;;;;4.74;71.48;99388.84;5106441;28;20027;-40
2023/04/13 03:45:02;;;;;;;9.90;5.05;;;;;;;4.88;71.63;99394.16;5106296;28;20035;-40
2023/04/13 03:47:27;;;;;;;8.18;5.43;;;;;;;4.81;70.96;99388.88;5106258;28;20027;-40
2023/04/13 03:49:53;;;;;;;10.02;5.00;;;;;;;4.62;71.45;99398.34;5105983;27;20404;-40
2023/04/13 03:52:18;;;;;;;9.32;5.13;;;;;;;4.49;71.73;99398.28;5105616;27;20030;-40
2023/04/13 03:54:43;;;;;;;7.40;4.40;;;;;;;4.61;72.07;99394.06;5106358;27;20423;-40
2023/04/13 03:57:09;;;;;;;11.20;7.95;;;;;;;4.10;74.25;99386.47;5106056;27;20467;-41
2023/04/13 03:59:34;;;;;;;14.95;9.40;;;;;;;3.73;77.85;99401.63;5106336;27;20106;-40
2023/04/13 04:02:01;;;;;;;15.32;8.02;;;;;;;3.96;76.09;99401.41;5105663;27;20028;-41
2023/04/13 04:04:27;;;;;;;66.45;27.88;;;;;;;3.75;78.99;99407.53;5106428;28;20515;-38
2023/04/13 04:06:52;;;;;;;291.05;104.95;;;;;;;4.03;78.14;99405.72;5105811;28;20043;-40
2023/04/13 04:09:18;;;;;;;172.68;67.53;;;;;;;4.30;77.71;99411.16;5106049;28;20617;-40
2023/04/13 04:11:43;;;;;;;102.90;40.58;;;;;;;4.56;75.52;99417.63;5106064;28;20024;-41
2023/04/13 04:14:09;;;;;;;90.30;37.58;;;;;;;4.66;74.73;99423.34;5106265;28;20039;-40
2023/04/13 04:16:35;;;;;;;56.20;25.50;;;;;;;4.91;73.37;99420.22;5106079;28;20465;-41
2023/04/13 04:19:01;;;;;;;33.78;17.60;;;;;;;4.84;73.30;99425.44;5105842;28;20119;-40
2023/04/13 04:21:34;;;;;;;55.13;31.15;;;;;;;5.15;71.04;99427.59;5106185;28;20127;-40
2023/04/13 04:24:01;;;;;;;36.05;18.67;;;;;;;5.32;69.59;99432.53;5106145;28;20492;-40
2023/04/13 04:26:28;;;;;;;44.72;22.15;;;;;;;4.87;72.38;99418.97;5105834;28;20024;-40
2023/04/13 04:29:00;;;;;;;30.30;15.35;;;;;;;5.16;70.04;99429.22;5105699;28;20526;-40
2023/04/13 04:31:30;;;;;;;23.08;11.60;;;;;;;5.26;70.41;99439.41;5105798;28;20028;-40
2023/04/13 04:33:56;;;;;;;32.95;18.65;;;;;;;4.86;73.34;99438.47;5105779;28;20155;-40
2023/04/13 04:36:23;;;;;;;25.05;16.02;;;;;;;5.08;72.31;99437.34;5105848;28;20145;-39
2023/04/13 04:38:50;;;;;;;26.85;17.45;;;;;;;5.60;69.46;99450.91;5106033;28;20500;-40
2023/04/13 04:41:19;;;;;;;25.50;15.73;;;;;;;5.53;69.68;99445.56;5105865;28;20024;-38
2023/04/13 04:43:45;;;;;;;22.27;12.63;;;;;;;5.34;71.00;99449.81;5105941;28;20054;-40
2023/04/13 04:46:14;;;;;;;21.17;12.68;;;;;;;5.57;68.86;99449.44;5105831;28;20415;-40
2023/04/13 04:48:40;;;;;;;21.98;11.57;;;;;;;5.40;69.71;99448.22;5106091;28;20114;-40
2023/04/13 04:51:07;;;;;;;28.02;18.25;;;;;;;5.93;67.68;99455.41;5105532;28;20076;-40
2023/04/13 04:53:33;;;;;;;26.38;12.57;;;;;;;5.58;70.45;99456.38;5104116;28;20708;-40
2023/04/13 04:55:58;;;;;;;53.97;28.52;;;;;;;5.30;71.58;99458.34;5105670;28;20480;-40
2023/04/13 04:58:23;;;;;;;31.25;18.70;;;;;;;5.43;70.67;99451.28;5105641;28;20038;-40
2023/04/13 05:00:51;;;;;;;14.38;8.07;;;;;;;5.55;70.84;99470.00;5105464;28;20738;-41
2023/04/13 05:03:17;;;;;;;14.50;8.32;;;;;;;5.73;71.03;99455.38;5108879;28;20031;-40
2023/04/13 05:05:42;;;;;;;17.58;10.10;;;;;;;6.43;68.12;99467.19;5108722;28;20821;-40
2023/04/13 05:08:08;;;;;;;13.75;8.00;;;;;;;6.24;68.02;99458.25;5108903;28;20526;-41
2023/04/13 05:10:34;;;;;;;19.00;8.43;;;;;;;6.07;68.42;99474.75;5109089;28;20036;-41
2023/04/13 05:13:00;;;;;;;14.27;7.35;;;;;;;6.32;67.68;99469.66;5108688;28;20035;-40
2023/04/13 05:15:26;;;;;;;14.98;8.00;;;;;;;6.51;65.58;99468.81;5108888;28;20027;-40
2023/04/13 05:17:52;;;;;;;12.00;7.22;;;;;;;6.86;65.18;99470.34;5108728;27;20125;-39
2023/04/13 05:20:18;;;;;;;13.07;6.97;;;;;;;6.97;64.27;99475.00;5109184;28;20031;-40
2023/04/13 05:22:43;;;;;;;13.02;7.25;;;;;;;7.12;65.72;99472.91;5109165;28;20460;-40
2023/04/13 05:25:09;;;;;;;12.45;7.22;;;;;;;7.32;64.31;99466.69;5108524;27;20031;-40
2023/04/13 05:27:35;;;;;;;14.07;8.68;;;;;;;7.40;62.66;99471.75;5106465;28;20023;-40
2023/04/13 05:30:02;;;;;;;14.85;8.82;;;;;;;7.46;63.08;99470.91;5100558;28;20096;-40
2023/04/13 05:32:27;;;;;;;15.00;9.23;;;;;;;7.53;65.75;99465.56;5108638;28;20020;-40
2023/04/13 05:34:53;;;;;;;22.55;11.55;;;;;;;7.80;63.60;99472.28;5108887;28;20023;-40
2023/04/13 05:37:19;;;;;;;22.85;12.52;;;;;;;7.96;61.59;99476.28;5108874;28;20232;-41
2023/04/13 05:39:45;;;;;;;25.05;14.80;;;;;;;8.00;63.61;99474.81;5109062;28;20080;-40
2023/04/13 05:42:10;;;;;;;64.78;37.38;;;;;;;8.22;63.68;99474.44;5108943;28;20096;-40
2023/04/13 05:44:36;;;;;;;41.40;24.65;;;;;;;8.49;62.10;99479.53;5108689;28;20027;-39
2023/04/13 05:47:02;;;;;;;52.47;33.38;;;;;;;8.80;62.61;99486.56;5108573;28;20488;-40
2023/04/13 05:49:27;;;;;;;180.80;95.88;;;;;;;8.88;59.63;99482.81;5108930;28;20700;-40
2023/04/13 05:51:53;;;;;;;20.05;11.05;;;;;;;9.02;59.15;99484.28;5108533;28;20042;-40
2023/04/13 05:54:19;;;;;;;17.60;10.48;;;;;;;12.00;64.44;99481.91;5108200;28;20555;-39
2023/04/13 05:56:46;;;;;;;17.90;8.65;;;;;;;13.18;56.49;99491.59;5107996;28;20032;-40
2023/04/13 05:59:12;;;;;;;9.15;5.20;;;;;;;12.17;50.81;99494.47;5108715;28;20027;-39
2023/04/13 06:01:37;;;;;;;10.15;6.25;;;;;;;12.15;53.44;99505.38;5108410;28;20028;-40
2023/04/13 06:04:04;;;;;;;9.68;5.18;;;;;;;12.09;51.46;99505.56;5108031;28;20027;-40
2023/04/13 06:06:30;;;;;;;8.70;4.80;;;;;;;12.04;51.15;99493.72;5106838;28;20135;-41
2023/04/13 06:08:55;;;;;;;8.27;5.20;;;;;;;12.87;51.02;99495.72;5108224;28;20526;-40
2023/04/13 06:11:21;;;;;;;11.00;6.00;;;;;;;13.11;51.94;99498.97;5108163;28;20175;-40
2023/04/13 06:13:46;;;;;;;10.40;5.25;;;;;;;13.12;48.82;99503.28;5107245;28;20465;-40
2023/04/13 06:16:12;;;;;;;10.90;6.28;;;;;;;13.94;47.82;99504.19;5108246;28;20472;-38
2023/04/13 06:18:37;;;;;;;19.70;12.52;;;;;;;12.76;48.46;99494.78;5107994;28;20076;-40
2023/04/13 06:21:03;;;;;;;9.52;5.50;;;;;;;12.15;47.28;99485.88;5107924;28;20031;-39
2023/04/13 06:23:28;;;;;;;9.70;5.80;;;;;;;12.04;47.48;99490.25;5107704;28;20046;-39
2023/04/13 06:25:54;;;;;;;18.25;8.07;;;;;;;13.02;49.00;99503.16;5107965;28;20035;-39
2023/04/13 06:28:19;;;;;;;13.70;6.70;;;;;;;13.30;48.98;99493.34;5107997;28;20588;-39
2023/04/13 06:30:45;;;;;;;14.88;6.50;;;;;;;13.64;46.50;99500.13;5107688;27;20038;-39
2023/04/13 06:33:11;;;;;;;12.20;6.18;;;;;;;15.00;45.38;99509.75;5107608;28;20062;-38
2023/04/13 06:35:37;;;;;;;15.30;9.10;;;;;;;13.66;43.05;99518.63;5107453;28;20070;-40
2023/04/13 06:38:03;;;;;;;13.95;8.90;;;;;;;13.66;44.98;99503.38;5107734;27;20019;-39
2023/04/13 06:40:30;;;;;;;12.20;7.95;;;;;;;14.33;41.96;99509.31;5107329;28;20035;-38
2023/04/13 06:42:56;;;;;;;15.40;9.02;;;;;;;14.50;46.48;99511.03;5107445;28;20080;-40
2023/04/13 06:45:22;;;;;;;16.58;10.63;;;;;;;14.90;42.85;99504.34;5107414;28;20027;-39
2023/04/13 06:47:47;;;;;;;24.17;18.00;;;;;;;13.65;43.83;99496.41;5107422;28;20028;-40
2023/04/13 06:50:17;;;;;;;13.35;8.25;;;;;;;14.31;42.80;99486.50;5107847;28;20035;-40
2023/04/13 06:52:44;;;;;;;14.75;9.20;;;;;;;14.22;43.47;99502.25;5107165;28;20023;-40
2023/04/13 06:55:09;;;;;;;13.23;8.05;;;;;;;15.26;44.96;99500.72;5107257;28;20100;-40
2023/04/13 06:57:35;;;;;;;17.52;12.38;;;;;;;15.02;42.19;99497.69;5107007;28;20450;-40
2023/04/13 07:00:00;;;;;;;9.30;4.88;;;;;;;14.53;41.31;99507.84;5107353;28;20565;-39
2023/04/13 07:02:26;;;;;;;11.40;5.60;;;;;;;14.84;43.31;99509.66;5106240;28;20035;-40
2023/04/13 07:04:52;;;;;;;10.57;5.63;;;;;;;14.75;44.79;99505.88;5106816;28;20049;-40
2023/04/13 07:07:17;;;;;;;9.40;4.30;;;;;;;14.65;44.22;99508.50;5106781;28;20040;-40
2023/04/13 07:09:43;;;;;;;6.15;3.00;;;;;;;14.39;40.50;99510.16;5106948;28;20423;-40
2023/04/13 07:12:08;;;;;;;7.60;3.35;;;;;;;14.04;42.51;99493.53;5106907;28;20023;-38
2023/04/13 07:14:35;;;;;;;15.98;5.07;;;;;;;14.66;43.36;99488.63;5106830;28;20137;-42
2023/04/13 07:17:01;;;;;;;12.20;4.53;;;;;;;15.05;41.21;99502.50;5106839;28;20055;-41
2023/04/13 07:19:29;;;;;;;65.28;14.02;;;;;;;14.76;39.29;99486.00;5106546;28;20062;-40
2023/04/13 07:21:55;;;;;;;;;;;;;;;15.08;41.43;99490.44;5107367;28;20072;-39
2023/04/13 07:24:20;;;;;;;10.68;3.97;;;;;;;14.61;43.55;99488.63;5106731;28;19919;-40
2023/04/13 07:26:46;;;;;;;33.90;10.95;;;;;;;14.81;43.07;99475.31;5105738;28;20049;-39
2023/04/13 07:29:14;;;;;;;12.35;4.93;;;;;;;15.08;41.18;99490.44;5104945;28;20514;-39
2023/04/13 07:31:39;;;;;;;15.68;5.80;;;;;;;15.48;42.09;99489.75;5106712;28;20046;-40
2023/04/13 07:34:05;;;;;;;12.82;5.10;;;;;;;15.70;40.98;99496.00;5106245;28;20478;-39
2023/04/13 07:36:31;;;;;;;26.08;6.78;;;;;;;15.87;39.05;99496.56;5106787;28;20390;-40
2023/04/13 07:38:56;;;;;;;30.90;8.68;;;;;;;15.85;38.42;99494.16;5106506;28;20020;-39
2023/04/13 07:41:23;;;;;;;23.23;7.35;;;;;;;15.52;40.56;99478.47;5106365;28;20022;-40
2023/04/13 07:43:49;;;;;;;8.75;3.83;;;;;;;15.33;39.44;99475.50;5106127;28;20027;-39
2023/04/13 07:46:15;;;;;;;30.38;8.18;;;;;;;15.77;40.68;99480.44;5106426;28;20034;-39
2023/04/13 07:48:40;;;;;;;16.90;7.80;;;;;;;15.81;38.79;99481.50;5106193;28;20035;-40
2023/04/13 07:51:14;;;;;;;6.85;3.50;;;;;;;15.62;41.16;99475.81;5106435;28;20468;-40
2023/04/13 07:53:39;;;;;;;8.45;3.53;;;;;;;15.91;39.65;99481.50;5106363;28;20122;-39
2023/04/13 07:56:05;;;;;;;7.97;3.92;;;;;;;15.53;41.40;99480.91;5106036;28;20201;-40
2023/04/13 07:58:31;;;;;;;7.80;4.97;;;;;;;15.32;39.65;99465.81;5106331;28;20076;-39
2023/04/13 08:00:56;;;;;;;7.55;3.42;;;;;;;15.07;41.49;99478.09;5105993;28;20031;-40
2023/04/13 08:03:22;;;;;;;8.23;3.60;;;;;;;15.13;39.53;99466.28;5106004;28;20028;-40
2023/04/13 08:05:47;;;;;;;8.75;3.42;;;;;;;15.53;39.73;99472.03;5105841;28;20396;-38
2023/04/13 08:08:12;;;;;;;5.78;3.08;;;;;;;15.15;37.32;99466.84;5105660;28;20035;-39
2023/04/13 08:10:39;;;;;;;10.77;3.60;;;;;;;15.59;39.53;99461.03;5106110;28;20020;-40
2023/04/13 08:13:05;;;;;;;6.65;4.35;;;;;;;15.85;39.28;99458.38;5105679;28;20039;-40
2023/04/13 08:15:31;;;;;;;7.72;3.60;;;;;;;15.73;37.75;99463.22;5106123;28;20031;-39
2023/04/13 08:17:58;;;;;;;9.10;3.50;;;;;;;16.61;37.31;99464.75;5105842;28;20034;-38
2023/04/13 08:20:24;;;;;;;7.65;3.80;;;;;;;16.50;36.37;99463.97;5104924;28;20019;-39
2023/04/13 08:22:49;;;;;;;6.18;3.10;;;;;;;16.59;34.22;99458.84;5104548;28;20024;-40
2023/04/13 08:25:16;;;;;;;13.30;4.40;;;;;;;17.26;37.82;99452.16;5104976;28;20419;-38
2023/04/13 08:27:42;;;;;;;14.70;4.22;;;;;;;17.58;37.08;99452.75;5105380;28;20540;-39
2023/04/13 08:30:10;;;;;;;7.22;3.00;;;;;;;17.08;33.88;99442.00;5105146;28;20028;-40
2023/04/13 08:32:35;;;;;;;6.22;3.28;;;;;;;17.45;35.62;99448.81;5105033;28;20019;-40
2023/04/13 08:35:06;;;;;;;6.70;2.80;;;;;;;17.66;34.67;99455.66;5105030;28;20032;-39
2023/04/13 08:37:33;;;;;;;5.97;2.90;;;;;;;17.97;33.70;99454.66;5106868;28;21353;-39
2023/04/13 08:39:59;;;;;;;8.07;3.10;;;;;;;18.22;33.02;99457.13;5109468;28;20027;-39
2023/04/13 08:42:29;;;;;;;8.65;3.38;;;;;;;17.83;31.19;99436.41;5109542;28;20084;-38
2023/04/13 08:45:00;;;;;;;10.57;3.35;;;;;;;17.90;33.07;99443.38;5109880;28;20019;-40
2023/04/13 08:47:27;;;;;;;5.65;3.03;;;;;;;18.59;32.12;99444.06;5109911;28;20024;-39
2023/04/13 08:49:56;;;;;;;9.13;3.40;;;;;;;18.54;29.40;99436.03;5109623;28;20576;-39
2023/04/13 08:52:22;;;;;;;7.00;3.15;;;;;;;18.52;28.82;99449.00;5109718;28;20027;-37
2023/04/13 08:54:47;;;;;;;5.60;2.75;;;;;;;18.67;28.67;99446.13;5109340;28;20056;-39
2023/04/13 08:57:15;;;;;;;8.23;3.30;;;;;;;18.61;30.68;99428.38;5109899;28;20024;-39
2023/04/13 08:59:42;;;;;;;6.63;3.37;;;;;;;18.90;29.72;99439.16;5109671;28;20069;-40
2023/04/13 09:02:09;;;;;;;7.07;2.38;;;;;;;19.05;31.44;99428.13;5109635;28;20027;-39
2023/04/13 09:04:41;;;;;;;8.10;3.47;;;;;;;19.56;33.07;99412.28;5109690;28;20036;-39
2023/04/13 09:07:10;;;;;;;6.35;2.80;;;;;;;19.54;30.18;99430.72;5109058;27;20042;-40
2023/04/13 09:09:37;;;;;;;6.18;3.15;;;;;;;19.33;30.84;99435.59;5109487;28;20035;-39
2023/04/13 09:12:03;;;;;;;4.28;2.22;;;;;;;19.22;28.77;99441.16;5109393;27;20031;-40
2023/04/13 09:14:31;;;;;;;5.43;2.40;;;;;;;19.14;31.48;99432.88;5109327;28;20080;-39
2023/04/13 09:16:56;;;;;;;3.80;1.92;;;;;;;19.34;30.54;99421.78;5109135;28;20599;-39
2023/04/13 09:19:30;;;;;;;5.60;2.30;;;;;;;19.92;32.67;99426.06;5109138;28;20031;-42
2023/04/13 09:21:56;;;;;;;4.25;1.90;;;;;;;19.39;26.58;99423.59;5109130;27;20552;-38
2023/04/13 09:24:22;;;;;;;4.93;1.75;;;;;;;19.13;29.26;99409.69;5109089;28;20496;-40
2023/04/13 09:26:48;;;;;;;3.28;1.77;;;;;;;18.91;27.92;99418.34;5107518;28;20027;-39
2023/04/13 09:29:19;;;;;;;2.95;1.85;;;;;;;18.82;28.47;99415.47;5094511;28;20452;-40
2023/04/13 09:31:46;;;;;;;5.65;2.20;;;;;;;19.30;27.41;99422.69;5102937;28;20412;-40
2023/04/13 09:34:12;;;;;;;3.95;2.00;;;;;;;19.37;27.50;99409.59;5108954;28;20103;-40
2023/04/13 09:36:38;;;;;;;5.60;2.03;;;;;;;19.79;25.83;99421.41;5109112;28;20027;-40
2023/04/13 09:39:04;;;;;;;5.53;2.00;;;;;;;19.35;30.50;99412.59;5108762;28;20045;-40
2023/04/13 09:41:36;;;;;;;3.55;1.90;;;;;;;19.17;26.69;99399.88;5108587;28;20110;-40
2023/04/13 09:44:33;;;;;;;7.03;2.35;;;;;;;19.74;27.27;99416.91;5108697;27;20036;-39
2023/04/13 09:47:03;;;;;;;4.05;1.95;;;;;;;19.92;26.40;99404.44;5108759;28;20024;-39
2023/04/13 09:49:42;;;;;;;6.32;2.67;;;;;;;19.58;30.13;99413.59;5107296;28;20024;-38
2023/04/13 09:52:23;;;;;;;4.05;2.10;;;;;;;20.12;26.32;99419.47;5108260;28;20046;-39
2023/04/13 09:54:57;;;;;;;4.45;1.92;;;;;;;20.74;30.82;99416.47;5108358;28;20042;-39
2023/04/13 09:57:27;;;;;;;3.97;2.00;;;;;;;20.84;27.08;99391.84;5108245;28;20408;-40
2023/04/13 09:59:55;;;;;;;5.68;2.50;;;;;;;21.21;25.86;99402.72;5108457;28;20111;-40
2023/04/13 10:02:21;;;;;;;5.38;2.13;;;;;;;21.10;25.63;99398.63;5108430;28;20030;-39
2023/04/13 10:04:46;;;;;;;5.15;1.80;;;;;;;21.85;25.79;99397.16;5108059;28;20574;-41
2023/04/13 10:07:12;;;;;;;4.25;2.03;;;;;;;20.98;24.63;99386.38;5107535;28;20075;-39
2023/04/13 10:09:44;;;;;;;7.00;1.92;;;;;;;21.55;24.20;99391.38;5107901;28;20050;-41
2023/04/13 10:12:12;;;;;;;5.22;1.80;;;;;;;21.99;27.06;99384.31;5105352;28;20030;-39
2023/04/13 10:14:41;;;;;;;6.10;1.80;;;;;;;22.37;28.88;99386.59;5107606;28;20038;-40
2023/04/13 10:17:10;;;;;;;4.05;1.55;;;;;;;22.65;24.29;99387.13;5107685;28;20039;-40
2023/04/13 10:19:44;;;;;;;3.42;1.80;;;;;;;21.77;26.84;99373.47;5107155;28;20073;-39
2023/04/13 10:22:10;;;;;;;3.83;1.83;;;;;;;22.20;28.17;99386.47;5105148;28;20114;-39
2023/04/13 10:24:38;;;;;;;2.55;1.50;;;;;;;22.83;25.83;99374.38;5107914;28;20480;-40
2023/04/13 10:27:29;;;;;;;;;;;;;;;22.56;23.33;99380.09;5107974;28;20102;-41
2023/04/13 10:29:55;;;;;;;5.18;1.60;;;;;;;22.89;23.61;99366.88;5104508;28;19912;-40
2023/04/13 10:32:26;;;;;;;3.53;1.20;;;;;;;23.42;23.93;99365.81;5107523;28;20024;-42
2023/04/13 10:34:53;;;;;;;5.85;1.65;;;;;;;23.59;24.82;99364.19;5107419;28;20107;-41
2023/04/13 10:37:20;;;;;;;3.15;1.50;;;;;;;24.03;25.42;99362.97;5107530;28;20024;-41
2023/04/13 10:39:46;;;;;;;3.30;1.40;;;;;;;23.13;22.16;99363.75;5107318;28;20119;-39
2023/04/13 10:42:12;;;;;;;3.38;1.42;;;;;;;23.69;23.29;99358.41;5107485;28;20027;-42
2023/04/13 10:44:48;;;;;;;4.25;1.60;;;;;;;23.74;22.27;99360.97;5107030;28;20043;-41
2023/04/13 10:47:15;;;;;;;4.07;1.60;;;;;;;23.59;22.28;99356.81;5107444;28;20036;-43
2023/04/13 10:49:42;;;;;;;;;;;;;;;23.90;22.85;99358.53;5108147;28;20066;-41
2023/04/13 10:52:09;;;;;;;2.72;1.42;;;;;;;23.98;21.56;99346.00;5107323;28;21434;-41
2023/04/13 10:54:36;;;;;;;2.57;1.33;;;;;;;24.37;23.02;99333.19;5106943;28;20095;-40
2023/04/13 10:57:05;;;;;;;4.03;1.92;;;;;;;23.92;21.11;99334.50;5106940;28;20034;-41
2023/04/13 10:59:50;;;;;;;3.90;1.50;;;;;;;24.65;21.99;99341.72;5106345;28;20546;-42
2023/04/13 11:02:16;;;;;;;2.90;1.20;;;;;;;25.07;23.80;99344.47;5106726;28;20084;-42
2023/04/13 11:04:44;;;;;;;2.63;1.40;;;;;;;24.34;21.18;99342.03;5106634;28;20023;-41
2023/04/13 11:07:18;;;;;;;3.83;1.65;;;;;;;24.15;24.06;99336.97;5106468;28;20055;-41
2023/04/13 11:09:47;;;;;;;2.75;1.48;;;;;;;24.09;22.29;99333.66;5107023;28;20124;-41
2023/04/13 11:12:16;;;;;;;3.60;1.40;;;;;;;23.15;22.87;99328.88;5107081;28;20507;-42
2023/04/13 11:14:45;;;;;;;2.13;1.50;;;;;;;23.59;21.95;99337.75;5106705;28;20034;-41
2023/04/13 11:17:14;;;;;;;4.57;1.63;;;;;;;23.17;21.89;99326.63;5106506;28;20051;-41
2023/04/13 11:19:54;;;;;;;2.63;1.20;;;;;;;24.18;21.83;99328.16;5106752;28;20164;-42
2023/04/13 11:22:24;;;;;;;4.68;1.70;;;;;;;24.54;21.91;99313.22;5105233;27;20488;-42
2023/04/13 11:24:50;;;;;;;4.28;1.52;;;;;;;24.90;21.28;99322.75;5106253;28;20083;-41
2023/04/13 11:27:20;;;;;;;2.42;1.50;;;;;;;25.05;20.30;99331.16;5106731;28;20031;-42
2023/04/13 11:29:57;;;;;;;2.92;1.60;;;;;;;25.35;20.44;99316.63;5095433;28;20493;-41
2023/04/13 11:32:22;;;;;;;3.17;1.35;;;;;;;25.58;20.12;99326.03;5086371;28;20028;-42
2023/04/13 11:34:48;;;;;;;1.85;1.23;;;;;;;25.80;19.80;99326.75;5086456;28;20032;-42